createdAt,value
2022-11-08T00:01:42.935Z,101526.56
2022-11-08T00:04:15.142Z,101523.96
2022-11-08T00:07:03.413Z,101524.50
2022-11-08T00:09:51.292Z,101529.23
2022-11-08T00:12:38.483Z,101527.30
2022-11-08T00:15:09.188Z,101528.48
2022-11-08T00:17:37.942Z,101530.22
2022-11-08T00:20:08.913Z,101528.91
2022-11-08T00:22:37.547Z,101529.17
2022-11-08T00:25:06.943Z,101527.19
2022-11-08T00:27:35.576Z,101518.41
2022-11-08T00:30:04.985Z,101515.13
2022-11-08T00:32:33.651Z,101515.13
2022-11-08T00:35:02.336Z,101518.93
2022-11-08T00:37:30.956Z,101516.81
2022-11-08T00:39:59.625Z,101515.13
2022-11-08T00:42:28.303Z,101519.02
2022-11-08T00:44:56.979Z,101518.16
2022-11-08T00:47:25.617Z,101516.13
2022-11-08T00:49:54.242Z,101515.42
2022-11-08T00:52:22.930Z,101510.79
2022-11-08T00:54:51.642Z,101514.26
2022-11-08T00:57:22.365Z,101512.05
2022-11-08T00:59:59.866Z,101509.59
2022-11-08T01:02:28.537Z,101509.48
2022-11-08T01:04:57.254Z,101511.09
2022-11-08T01:07:25.919Z,101511.75
2022-11-08T01:09:55.034Z,101510.25
2022-11-08T01:12:23.749Z,101505.64
2022-11-08T01:14:52.629Z,101506.66
2022-11-08T01:17:21.259Z,101508.37
2022-11-08T01:19:49.927Z,101507.14
2022-11-08T01:22:18.605Z,101510.40
2022-11-08T01:24:47.170Z,101506.92
2022-11-08T01:27:15.776Z,101505.67
2022-11-08T01:29:44.354Z,101508.41
2022-11-08T01:32:12.973Z,101511.73
2022-11-08T01:34:41.626Z,101510.44
2022-11-08T01:37:10.268Z,101509.59
2022-11-08T01:39:38.944Z,101510.58
2022-11-08T01:42:07.620Z,101509.96
2022-11-08T01:45:07.378Z,101513.94
2022-11-08T01:47:36.019Z,101511.39
2022-11-08T01:50:17.141Z,101512.36
2022-11-08T01:52:56.024Z,101513.66
2022-11-08T01:55:37.014Z,101516.36
2022-11-08T01:58:14.697Z,101513.98
2022-11-08T02:00:43.863Z,101513.77
2022-11-08T02:03:19.009Z,101509.14
2022-11-08T02:05:48.635Z,101508.77
2022-11-08T02:08:37.944Z,101507.50
2022-11-08T02:11:09.209Z,101506.09
2022-11-08T02:13:39.440Z,101507.34
2022-11-08T02:16:14.055Z,101507.48
2022-11-08T02:18:45.637Z,101511.63
2022-11-08T02:21:34.236Z,101517.41
2022-11-08T02:24:08.632Z,101519.79
2022-11-08T02:26:38.572Z,101527.91
2022-11-08T02:29:35.062Z,101529.20
2022-11-08T02:32:06.416Z,101530.17
2022-11-08T02:34:51.556Z,101530.70
2022-11-08T02:37:21.873Z,101530.55
2022-11-08T02:39:50.527Z,101534.96
2022-11-08T02:42:21.245Z,101536.95
2022-11-08T02:44:50.124Z,101531.92
2022-11-08T02:47:18.754Z,101535.70
2022-11-08T02:49:53.247Z,101537.20
2022-11-08T02:52:21.839Z,101538.97
2022-11-08T02:54:50.430Z,101539.39
2022-11-08T02:57:19.037Z,101539.08
2022-11-08T02:59:49.295Z,101535.45
2022-11-08T03:02:18.044Z,101542.59
2022-11-08T03:04:46.749Z,101544.48
2022-11-08T03:07:15.270Z,101548.36
2022-11-08T03:09:43.864Z,101544.58
2022-11-08T03:12:12.536Z,101547.89
2022-11-08T03:14:59.087Z,101557.00
2022-11-08T03:17:27.818Z,101558.49
2022-11-08T03:19:56.491Z,101559.40
2022-11-08T03:22:25.592Z,101557.97
2022-11-08T03:24:54.232Z,101558.41
2022-11-08T03:27:23.701Z,101561.39
2022-11-08T03:29:52.329Z,101567.24
2022-11-08T03:32:20.946Z,101563.58
2022-11-08T03:34:49.587Z,101569.01
2022-11-08T03:37:18.324Z,101570.34
2022-11-08T03:39:47.007Z,101573.79
2022-11-08T03:42:15.629Z,101571.47
2022-11-08T03:44:44.329Z,101575.23
2022-11-08T03:47:12.971Z,101578.90
2022-11-08T03:49:41.635Z,101584.46
2022-11-08T03:52:10.237Z,101581.91
2022-11-08T03:54:59.118Z,101581.57
2022-11-08T03:57:27.753Z,101578.27
2022-11-08T03:59:56.333Z,101577.96
2022-11-08T04:02:25.160Z,101578.21
2022-11-08T04:04:53.842Z,101574.98
2022-11-08T04:07:22.553Z,101578.23
2022-11-08T04:09:51.274Z,101575.77
2022-11-08T04:12:38.330Z,101575.59
2022-11-08T04:15:17.044Z,101572.44
2022-11-08T04:18:09.986Z,101569.73
2022-11-08T04:21:44.049Z,101570.94
2022-11-08T04:24:15.658Z,101575.91
2022-11-08T04:26:44.343Z,101580.88
2022-11-08T04:29:13.437Z,101582.77
2022-11-08T04:31:42.552Z,101587.41
2022-11-08T04:34:11.254Z,101590.02
2022-11-08T04:36:40.145Z,101590.44
2022-11-08T04:39:09.133Z,101591.76
2022-11-08T04:41:37.951Z,101590.35
2022-11-08T04:44:06.662Z,101589.30
2022-11-08T04:46:35.324Z,101591.52
2022-11-08T04:49:04.062Z,101589.34
2022-11-08T04:51:34.024Z,101591.31
2022-11-08T04:54:05.282Z,101593.73
2022-11-08T04:56:36.333Z,101593.04
2022-11-08T04:59:08.348Z,101592.11
2022-11-08T05:01:40.986Z,101592.63
2022-11-08T05:04:12.523Z,101596.80
2022-11-08T05:06:41.120Z,101602.45
2022-11-08T05:09:11.921Z,101604.88
2022-11-08T05:12:11.122Z,101607.17
2022-11-08T05:14:52.400Z,101610.13
2022-11-08T05:17:22.944Z,101613.63
2022-11-08T05:20:10.369Z,101616.35
2022-11-08T05:23:02.212Z,101618.52
2022-11-08T05:25:55.916Z,101619.29
2022-11-08T05:28:25.334Z,101619.51
2022-11-08T05:30:58.181Z,101624.30
2022-11-08T05:33:28.497Z,101626.98
2022-11-08T05:39:01.529Z,101630.42
2022-11-08T05:41:32.517Z,101637.83
2022-11-08T05:44:06.715Z,101639.92
2022-11-08T05:46:37.772Z,101645.09
2022-11-08T05:49:10.075Z,101645.47
2022-11-08T05:51:40.449Z,101650.55
2022-11-08T05:54:22.808Z,101652.52
2022-11-08T05:57:17.742Z,101652.20
2022-11-08T06:00:00.243Z,101654.92
2022-11-08T06:05:26.536Z,101663.93
2022-11-08T06:08:03.333Z,101667.34
2022-11-08T06:10:40.036Z,101668.03
2022-11-08T06:16:19.502Z,101672.61
2022-11-08T06:26:05.725Z,101681.67
2022-11-08T06:28:42.079Z,101689.34
2022-11-08T06:31:12.046Z,101684.91
2022-11-08T06:33:43.157Z,101687.48
2022-11-08T06:36:15.937Z,101686.90
2022-11-08T06:38:50.315Z,101690.55
2022-11-08T06:41:20.838Z,101696.15
2022-11-08T06:43:50.907Z,101695.92
2022-11-08T06:46:23.344Z,101697.05
2022-11-08T06:48:54.488Z,101702.11
2022-11-08T06:51:25.282Z,101700.47
2022-11-08T06:53:56.424Z,101696.85
2022-11-08T06:56:31.951Z,101682.84
2022-11-08T06:59:09.699Z,101702.19
2022-11-08T07:01:46.809Z,101705.59
2022-11-08T07:04:19.624Z,101703.82
2022-11-08T07:06:48.988Z,101699.86
2022-11-08T07:09:19.087Z,101695.38
2022-11-08T07:11:48.753Z,101698.06
2022-11-08T07:14:23.904Z,101695.00
2022-11-08T07:16:53.970Z,101694.02
2022-11-08T07:19:23.615Z,101687.73
2022-11-08T07:21:53.777Z,101685.24
2022-11-08T07:24:23.505Z,101688.44
2022-11-08T07:26:54.166Z,101689.40
2022-11-08T07:29:27.590Z,101697.10
2022-11-08T07:31:57.942Z,101685.59
2022-11-08T07:34:27.656Z,101696.16
2022-11-08T07:36:57.196Z,101696.88
2022-11-08T07:39:29.501Z,101694.59
2022-11-08T07:42:00.894Z,101697.89
2022-11-08T07:44:34.838Z,101701.23
2022-11-08T07:47:04.252Z,101708.89
2022-11-08T07:49:36.122Z,101701.58
2022-11-08T07:52:09.123Z,101712.61
2022-11-08T07:54:38.841Z,101703.07
2022-11-08T07:57:17.988Z,101704.77
2022-11-08T08:00:01.400Z,101706.07
2022-11-08T08:03:01.822Z,101711.89
2022-11-08T08:05:41.268Z,101708.77
2022-11-08T08:08:17.615Z,101709.19
2022-11-08T08:10:53.098Z,101710.97
2022-11-08T08:13:25.389Z,101709.40
2022-11-08T08:16:05.608Z,101705.33
2022-11-08T08:18:40.365Z,101703.39
2022-11-08T08:21:26.403Z,101701.30
2022-11-08T08:24:13.595Z,101701.00
2022-11-08T08:26:45.874Z,101704.60
2022-11-08T08:29:19.973Z,101702.70
2022-11-08T08:31:54.346Z,101701.38
2022-11-08T08:34:31.323Z,101675.05
2022-11-08T08:37:04.181Z,101700.43
2022-11-08T08:39:36.904Z,101697.49
2022-11-08T08:42:07.793Z,101701.43
2022-11-08T08:44:40.084Z,101701.81
2022-11-08T08:47:09.091Z,101704.17
2022-11-08T08:49:38.985Z,101702.77
2022-11-08T08:52:10.537Z,101687.89
2022-11-08T08:54:39.813Z,101709.11
2022-11-08T08:57:10.710Z,101703.71
2022-11-08T09:02:32.697Z,101702.70
2022-11-08T09:05:04.569Z,101707.29
2022-11-08T09:07:56.649Z,101696.89
2022-11-08T09:10:39.437Z,101693.52
2022-11-08T09:13:46.281Z,101692.07
2022-11-08T09:16:20.762Z,101687.77
2022-11-08T09:19:09.396Z,101667.42
2022-11-08T09:21:44.077Z,101684.42
2022-11-08T09:24:20.777Z,101677.73
2022-11-08T09:27:18.791Z,101680.25
2022-11-08T09:44:34.404Z,101675.44
2022-11-08T09:47:52.920Z,101674.17
2022-11-08T09:50:48.743Z,101652.91
2022-11-08T09:54:04.412Z,101672.98
2022-11-08T09:56:38.646Z,101672.82
2022-11-08T09:59:48.005Z,101670.39
2022-11-08T10:02:37.000Z,101666.76
2022-11-08T10:05:31.831Z,101646.83
2022-11-08T10:08:44.775Z,101655.73
2022-11-08T10:15:15.790Z,101657.58
2022-11-08T10:22:21.078Z,101647.02
2022-11-08T10:37:21.581Z,101632.90
2022-11-08T10:40:20.991Z,101634.20
2022-11-08T10:43:09.607Z,101631.89
2022-11-08T10:45:55.219Z,101623.80
2022-11-08T10:48:24.981Z,101626.18
2022-11-08T10:50:57.802Z,101632.42
2022-11-08T10:56:58.445Z,101618.42
2022-11-08T11:00:34.627Z,101623.77
2022-11-08T11:03:28.971Z,101626.11
2022-11-08T11:06:44.841Z,101614.28
2022-11-08T11:10:45.669Z,101627.67
2022-11-08T13:11:28.362Z,101589.64
2022-11-08T13:30:57.812Z,101596.58
2022-11-08T16:47:11.392Z,101706.66
2022-11-08T16:49:38.809Z,101708.52
2022-11-08T16:56:04.536Z,101707.92
2022-11-08T17:12:36.826Z,101708.59
2022-11-08T17:15:22.635Z,101687.02
2022-11-08T17:17:52.887Z,101714.76
2022-11-08T17:20:23.394Z,101715.27
2022-11-08T17:22:54.257Z,101716.73
2022-11-08T17:25:23.532Z,101713.23
2022-11-08T17:27:53.112Z,101715.79
2022-11-08T17:30:26.546Z,101714.14
2022-11-08T17:33:00.994Z,101714.68
2022-11-08T17:35:28.476Z,101714.40
2022-11-08T17:37:55.761Z,101718.19
2022-11-08T17:40:23.103Z,101718.46
2022-11-08T17:42:58.899Z,101724.23
2022-11-08T17:45:26.661Z,101723.52
2022-11-08T17:47:54.259Z,101724.60
2022-11-08T17:50:22.044Z,101727.64
2022-11-08T17:52:59.529Z,101723.30
2022-11-08T17:55:27.308Z,101728.45
2022-11-08T17:57:54.983Z,101721.92
2022-11-08T18:00:22.698Z,101726.81
2022-11-08T18:02:50.369Z,101726.81
2022-11-08T18:05:17.660Z,101724.94
2022-11-08T18:07:45.283Z,101720.56
2022-11-08T18:10:13.512Z,101723.67
2022-11-08T18:12:40.918Z,101723.95
2022-11-08T18:15:37.802Z,101724.52
2022-11-08T18:18:06.289Z,101720.94
2022-11-08T18:20:35.213Z,101716.83
2022-11-08T18:23:13.507Z,101718.08
2022-11-08T18:25:48.873Z,101718.91
2022-11-08T18:29:15.918Z,101694.30
2022-11-08T18:31:44.399Z,101721.88
2022-11-08T18:34:15.439Z,101721.55
2022-11-08T18:36:44.038Z,101723.16
2022-11-08T18:39:21.469Z,101722.65
2022-11-08T18:41:49.574Z,101724.86
2022-11-08T18:44:23.453Z,101728.56
2022-11-08T18:47:05.213Z,101728.52
2022-11-08T18:49:33.223Z,101732.20
2022-11-08T18:52:01.853Z,101730.21
2022-11-08T18:54:30.557Z,101732.03
2022-11-08T18:56:58.588Z,101730.61
2022-11-08T18:59:26.567Z,101735.88
2022-11-08T19:01:54.160Z,101736.45
2022-11-08T19:08:19.889Z,101750.10
2022-11-08T19:11:02.666Z,101751.17
2022-11-08T19:13:32.929Z,101753.48
2022-11-08T19:16:12.804Z,101751.98
2022-11-08T19:18:41.849Z,101755.90
2022-11-08T19:21:22.462Z,101755.24
2022-11-08T19:23:51.455Z,101757.09
2022-11-08T19:26:22.282Z,101756.98
2022-11-08T19:28:53.262Z,101756.69
2022-11-08T19:31:23.785Z,101754.72
2022-11-08T19:33:55.948Z,101760.16
2022-11-08T19:36:28.047Z,101759.91
2022-11-08T19:38:57.442Z,101761.83
2022-11-08T19:41:28.812Z,101762.65
2022-11-08T19:43:57.282Z,101762.70
2022-11-08T19:46:28.566Z,101763.66
2022-11-08T19:48:59.429Z,101765.79
2022-11-08T19:51:30.728Z,101768.11
2022-11-08T19:54:07.974Z,101766.05
2022-11-08T19:57:06.619Z,101766.57
2022-11-08T19:59:23.968Z,101771.03
2022-11-08T20:01:52.096Z,101770.51
2022-11-08T20:04:20.196Z,101771.20
2022-11-08T20:06:47.581Z,101770.37
2022-11-08T20:09:15.170Z,101775.48
2022-11-08T20:11:42.424Z,101776.23
2022-11-08T20:14:13.229Z,101777.70
2022-11-08T20:16:43.163Z,101781.33
2022-11-08T20:19:15.850Z,101782.85
2022-11-08T20:21:45.550Z,101780.33
2022-11-08T20:24:14.115Z,101778.86
2022-11-08T20:26:43.003Z,101777.42
2022-11-08T20:29:10.789Z,101777.36
2022-11-08T20:31:38.811Z,101773.64
2022-11-08T20:34:10.018Z,101771.15
2022-11-08T20:36:38.307Z,101773.04
2022-11-08T20:39:08.209Z,101775.36
2022-11-08T20:41:38.277Z,101775.54
2022-11-08T20:44:08.592Z,101774.83
2022-11-08T20:46:37.398Z,101777.40
2022-11-08T20:49:05.628Z,101773.77
2022-11-08T20:51:34.066Z,101770.86
2022-11-08T20:54:01.831Z,101774.05
2022-11-08T20:56:29.691Z,101779.11
2022-11-08T20:58:57.126Z,101780.41
2022-11-08T21:01:28.736Z,101780.86
2022-11-08T21:03:56.346Z,101784.13
2022-11-08T21:06:26.349Z,101782.55
2022-11-08T21:09:14.437Z,101783.03
2022-11-08T21:11:42.992Z,101784.06
2022-11-08T21:14:10.261Z,101784.88
2022-11-08T21:17:06.698Z,101782.30
2022-11-08T21:19:26.017Z,101783.43
2022-11-08T21:22:13.351Z,101781.01
2022-11-08T21:24:42.694Z,101784.16
2022-11-08T21:27:10.572Z,101786.06
2022-11-08T21:29:38.459Z,101784.55
2022-11-08T21:32:06.527Z,101785.61
2022-11-08T21:34:33.970Z,101785.23
2022-11-08T21:37:01.238Z,101782.20
2022-11-08T21:39:28.515Z,101767.22
2022-11-08T21:41:55.851Z,101764.17
2022-11-08T21:44:23.194Z,101779.20
2022-11-08T21:46:50.597Z,101779.61
2022-11-08T21:49:17.996Z,101779.32
2022-11-08T21:51:45.327Z,101780.21
2022-11-08T21:54:12.675Z,101781.56
2022-11-08T21:56:40.124Z,101783.57
2022-11-08T21:59:07.538Z,101784.17
2022-11-08T22:01:34.942Z,101782.23
2022-11-08T22:04:02.418Z,101782.19
2022-11-08T22:06:29.870Z,101785.08
2022-11-08T22:08:57.478Z,101782.30
2022-11-08T22:11:24.859Z,101782.59
2022-11-08T22:13:52.276Z,101779.92
2022-11-08T22:16:19.652Z,101776.79
2022-11-08T22:21:38.069Z,101779.33
2022-11-08T22:24:17.797Z,101779.48
2022-11-08T22:26:46.244Z,101781.91
2022-11-08T22:29:14.019Z,101779.85
2022-11-08T22:31:41.753Z,101774.85
2022-11-08T22:34:10.446Z,101775.73
2022-11-08T22:36:44.906Z,101778.52
2022-11-08T22:39:15.718Z,101779.91
2022-11-08T22:41:45.097Z,101779.48
2022-11-08T22:44:13.566Z,101778.38
2022-11-08T22:46:42.106Z,101776.88
2022-11-08T22:49:11.255Z,101775.30
2022-11-08T22:51:39.543Z,101776.94
2022-11-08T22:54:07.415Z,101775.13
2022-11-08T22:56:35.536Z,101775.90
2022-11-08T22:59:04.041Z,101776.52
2022-11-08T23:01:32.164Z,101774.37
2022-11-08T23:03:59.838Z,101772.71
2022-11-08T23:06:27.312Z,101775.17
2022-11-08T23:08:55.194Z,101775.73
2022-11-08T23:11:41.703Z,101775.12
2022-11-08T23:14:33.745Z,101773.40
2022-11-08T23:17:07.419Z,101771.59
2022-11-08T23:19:53.531Z,101772.76
2022-11-08T23:22:40.781Z,101777.60
2022-11-08T23:25:08.697Z,101778.65
2022-11-08T23:27:54.618Z,101778.29
2022-11-08T23:31:21.260Z,101774.05
2022-11-08T23:33:48.807Z,101778.14
2022-11-08T23:36:16.490Z,101778.92
2022-11-08T23:38:43.942Z,101781.94
2022-11-08T23:41:30.138Z,101783.92
2022-11-08T23:44:16.224Z,101781.20
2022-11-08T23:46:43.811Z,101785.83
2022-11-08T23:49:11.150Z,101789.98
2022-11-08T23:51:38.630Z,101792.19
2022-11-08T23:54:05.957Z,101791.27
2022-11-08T23:56:33.497Z,101789.48
2022-11-08T23:59:00.939Z,101791.83
